sensor_id;sensor_type;location;lat;lon;timestamp;P1;durP1;ratioP1;P2;durP2;ratioP2
19802;SDS011;66074;50.764;6.090;2023-04-24T00:01:47;1.85;;;1.00;;
19802;SDS011;66074;50.764;6.090;2023-04-24T00:04:13;1.15;;;1.05;;
19802;SDS011;66074;50.764;6.090;2023-04-24T00:06:41;1.80;;;1.20;;
19802;SDS011;66074;50.764;6.090;2023-04-24T00:09:08;0.98;;;0.93;;
19802;SDS011;66074;50.764;6.090;2023-04-24T00:11:34;1.20;;;1.10;;
19802;SDS011;66074;50.764;6.090;2023-04-24T00:14:01;1.20;;;1.10;;
19802;SDS011;66074;50.764;6.090;2023-04-24T00:16:26;1.85;;;1.75;;
19802;SDS011;66074;50.764;6.090;2023-04-24T00:18:52;1.90;;;1.27;;
19802;SDS011;66074;50.764;6.090;2023-04-24T00:21:18;2.38;;;1.77;;
19802;SDS011;66074;50.764;6.090;2023-04-24T00:23:44;1.42;;;1.33;;
19802;SDS011;66074;50.764;6.090;2023-04-24T00:26:09;4.40;;;2.88;;
19802;SDS011;66074;50.764;6.090;2023-04-24T00:28:35;3.25;;;2.75;;
19802;SDS011;66074;50.764;6.090;2023-04-24T00:31:01;2.97;;;2.78;;
19802;SDS011;66074;50.764;6.090;2023-04-24T00:33:27;2.92;;;2.42;;
19802;SDS011;66074;50.764;6.090;2023-04-24T00:35:52;3.15;;;2.58;;
19802;SDS011;66074;50.764;6.090;2023-04-24T00:38:18;2.42;;;2.22;;
19802;SDS011;66074;50.764;6.090;2023-04-24T00:40:44;2.90;;;2.70;;
19802;SDS011;66074;50.764;6.090;2023-04-24T00:43:10;3.65;;;3.33;;
19802;SDS011;66074;50.764;6.090;2023-04-24T00:45:36;4.57;;;3.28;;
19802;SDS011;66074;50.764;6.090;2023-04-24T00:48:02;3.42;;;2.97;;
19802;SDS011;66074;50.764;6.090;2023-04-24T00:50:29;3.90;;;3.58;;
19802;SDS011;66074;50.764;6.090;2023-04-24T00:52:55;4.70;;;3.70;;
19802;SDS011;66074;50.764;6.090;2023-04-24T00:55:22;3.75;;;3.33;;
19802;SDS011;66074;50.764;6.090;2023-04-24T00:57:47;3.95;;;3.47;;
19802;SDS011;66074;50.764;6.090;2023-04-24T01:00:14;4.93;;;4.05;;
19802;SDS011;66074;50.764;6.090;2023-04-24T01:02:41;3.97;;;3.53;;
19802;SDS011;66074;50.764;6.090;2023-04-24T01:05:10;4.82;;;3.75;;
19802;SDS011;66074;50.764;6.090;2023-04-24T01:07:37;3.92;;;3.63;;
19802;SDS011;66074;50.764;6.090;2023-04-24T01:10:05;4.28;;;3.83;;
19802;SDS011;66074;50.764;6.090;2023-04-24T01:12:32;5.03;;;3.75;;
19802;SDS011;66074;50.764;6.090;2023-04-24T01:14:58;4.25;;;3.85;;
19802;SDS011;66074;50.764;6.090;2023-04-24T01:17:24;4.35;;;3.80;;
19802;SDS011;66074;50.764;6.090;2023-04-24T01:19:50;4.43;;;3.88;;
19802;SDS011;66074;50.764;6.090;2023-04-24T01:22:18;5.70;;;4.28;;
19802;SDS011;66074;50.764;6.090;2023-04-24T01:24:45;5.18;;;4.53;;
19802;SDS011;66074;50.764;6.090;2023-04-24T01:27:11;5.43;;;4.20;;
19802;SDS011;66074;50.764;6.090;2023-04-24T01:29:37;4.50;;;3.90;;
19802;SDS011;66074;50.764;6.090;2023-04-24T01:32:03;4.40;;;3.88;;
19802;SDS011;66074;50.764;6.090;2023-04-24T01:34:30;6.85;;;4.00;;
19802;SDS011;66074;50.764;6.090;2023-04-24T01:36:56;4.47;;;3.78;;
19802;SDS011;66074;50.764;6.090;2023-04-24T01:39:21;5.22;;;3.92;;
19802;SDS011;66074;50.764;6.090;2023-04-24T01:41:51;5.43;;;4.22;;
19802;SDS011;66074;50.764;6.090;2023-04-24T01:44:17;5.40;;;4.18;;
19802;SDS011;66074;50.764;6.090;2023-04-24T01:46:43;4.82;;;4.22;;
19802;SDS011;66074;50.764;6.090;2023-04-24T01:49:09;6.03;;;4.70;;
19802;SDS011;66074;50.764;6.090;2023-04-24T01:51:35;5.53;;;4.95;;
19802;SDS011;66074;50.764;6.090;2023-04-24T01:54:01;4.70;;;4.30;;
19802;SDS011;66074;50.764;6.090;2023-04-24T01:56:28;5.18;;;4.68;;
19802;SDS011;66074;50.764;6.090;2023-04-24T01:58:55;6.05;;;4.07;;
19802;SDS011;66074;50.764;6.090;2023-04-24T02:01:23;4.50;;;4.10;;
19802;SDS011;66074;50.764;6.090;2023-04-24T02:03:49;5.88;;;4.40;;
19802;SDS011;66074;50.764;6.090;2023-04-24T02:06:15;6.05;;;4.00;;
19802;SDS011;66074;50.764;6.090;2023-04-24T02:08:40;4.35;;;3.92;;
19802;SDS011;66074;50.764;6.090;2023-04-24T02:11:06;5.65;;;4.53;;
19802;SDS011;66074;50.764;6.090;2023-04-24T02:13:33;6.65;;;4.72;;
19802;SDS011;66074;50.764;6.090;2023-04-24T02:15:59;6.13;;;4.25;;
19802;SDS011;66074;50.764;6.090;2023-04-24T02:18:25;4.88;;;4.38;;
19802;SDS011;66074;50.764;6.090;2023-04-24T02:20:51;5.60;;;4.18;;
19802;SDS011;66074;50.764;6.090;2023-04-24T02:23:16;5.60;;;4.40;;
19802;SDS011;66074;50.764;6.090;2023-04-24T02:25:42;5.22;;;4.72;;
19802;SDS011;66074;50.764;6.090;2023-04-24T02:28:07;5.57;;;4.82;;
19802;SDS011;66074;50.764;6.090;2023-04-24T02:30:33;6.00;;;5.47;;
19802;SDS011;66074;50.764;6.090;2023-04-24T02:32:59;5.22;;;4.82;;
19802;SDS011;66074;50.764;6.090;2023-04-24T02:35:25;5.45;;;4.80;;
19802;SDS011;66074;50.764;6.090;2023-04-24T02:37:50;9.57;;;5.43;;
19802;SDS011;66074;50.764;6.090;2023-04-24T02:40:16;6.38;;;5.70;;
19802;SDS011;66074;50.764;6.090;2023-04-24T02:42:42;7.45;;;5.80;;
19802;SDS011;66074;50.764;6.090;2023-04-24T02:45:07;5.95;;;5.25;;
19802;SDS011;66074;50.764;6.090;2023-04-24T02:47:33;6.53;;;5.35;;
19802;SDS011;66074;50.764;6.090;2023-04-24T02:49:59;6.13;;;4.80;;
19802;SDS011;66074;50.764;6.090;2023-04-24T02:52:25;5.70;;;5.10;;
19802;SDS011;66074;50.764;6.090;2023-04-24T02:54:50;6.00;;;5.05;;
19802;SDS011;66074;50.764;6.090;2023-04-24T02:57:16;7.72;;;5.03;;
19802;SDS011;66074;50.764;6.090;2023-04-24T02:59:42;6.45;;;4.80;;
19802;SDS011;66074;50.764;6.090;2023-04-24T03:02:07;5.50;;;4.85;;
19802;SDS011;66074;50.764;6.090;2023-04-24T03:04:33;4.95;;;4.30;;
19802;SDS011;66074;50.764;6.090;2023-04-24T03:06:59;6.75;;;4.65;;
19802;SDS011;66074;50.764;6.090;2023-04-24T03:09:26;4.95;;;4.40;;
19802;SDS011;66074;50.764;6.090;2023-04-24T03:11:51;4.57;;;4.18;;
19802;SDS011;66074;50.764;6.090;2023-04-24T03:14:17;5.75;;;5.03;;
19802;SDS011;66074;50.764;6.090;2023-04-24T03:16:42;5.30;;;4.75;;
19802;SDS011;66074;50.764;6.090;2023-04-24T03:19:08;5.82;;;5.22;;
19802;SDS011;66074;50.764;6.090;2023-04-24T03:21:34;5.25;;;4.75;;
19802;SDS011;66074;50.764;6.090;2023-04-24T03:24:00;7.38;;;4.60;;
19802;SDS011;66074;50.764;6.090;2023-04-24T03:26:27;5.80;;;5.18;;
19802;SDS011;66074;50.764;6.090;2023-04-24T03:28:52;5.03;;;4.38;;
19802;SDS011;66074;50.764;6.090;2023-04-24T03:31:18;5.35;;;4.85;;
19802;SDS011;66074;50.764;6.090;2023-04-24T03:33:46;6.05;;;4.78;;
19802;SDS011;66074;50.764;6.090;2023-04-24T03:36:11;5.38;;;4.80;;
19802;SDS011;66074;50.764;6.090;2023-04-24T03:38:37;5.82;;;4.60;;
19802;SDS011;66074;50.764;6.090;2023-04-24T03:41:03;7.28;;;4.50;;
19802;SDS011;66074;50.764;6.090;2023-04-24T03:43:28;4.70;;;4.30;;
19802;SDS011;66074;50.764;6.090;2023-04-24T03:45:54;5.35;;;4.95;;
19802;SDS011;66074;50.764;6.090;2023-04-24T03:48:20;4.70;;;4.22;;
19802;SDS011;66074;50.764;6.090;2023-04-24T03:50:45;6.72;;;4.80;;
19802;SDS011;66074;50.764;6.090;2023-04-24T03:53:11;5.13;;;4.63;;
19802;SDS011;66074;50.764;6.090;2023-04-24T03:55:37;4.97;;;4.47;;
19802;SDS011;66074;50.764;6.090;2023-04-24T03:58:02;6.00;;;5.40;;
19802;SDS011;66074;50.764;6.090;2023-04-24T04:00:28;6.28;;;4.95;;
19802;SDS011;66074;50.764;6.090;2023-04-24T04:02:58;5.35;;;4.88;;
19802;SDS011;66074;50.764;6.090;2023-04-24T04:05:23;5.25;;;4.65;;
19802;SDS011;66074;50.764;6.090;2023-04-24T04:07:49;5.53;;;4.93;;
19802;SDS011;66074;50.764;6.090;2023-04-24T04:10:15;5.75;;;5.20;;
19802;SDS011;66074;50.764;6.090;2023-04-24T04:12:42;6.00;;;5.40;;
19802;SDS011;66074;50.764;6.090;2023-04-24T04:15:07;5.30;;;4.90;;
19802;SDS011;66074;50.764;6.090;2023-04-24T04:17:33;6.40;;;5.40;;
19802;SDS011;66074;50.764;6.090;2023-04-24T04:19:59;8.00;;;5.43;;
19802;SDS011;66074;50.764;6.090;2023-04-24T04:22:25;5.47;;;4.95;;
19802;SDS011;66074;50.764;6.090;2023-04-24T04:24:50;6.32;;;5.72;;
19802;SDS011;66074;50.764;6.090;2023-04-24T04:27:16;5.60;;;5.10;;
19802;SDS011;66074;50.764;6.090;2023-04-24T04:29:43;6.18;;;5.55;;
19802;SDS011;66074;50.764;6.090;2023-04-24T04:32:09;6.43;;;5.75;;
19802;SDS011;66074;50.764;6.090;2023-04-24T04:34:35;6.10;;;5.00;;
19802;SDS011;66074;50.764;6.090;2023-04-24T04:37:02;6.05;;;5.45;;
19802;SDS011;66074;50.764;6.090;2023-04-24T04:39:28;6.53;;;5.93;;
19802;SDS011;66074;50.764;6.090;2023-04-24T04:41:55;6.50;;;6.00;;
19802;SDS011;66074;50.764;6.090;2023-04-24T04:44:21;6.00;;;5.40;;
19802;SDS011;66074;50.764;6.090;2023-04-24T04:46:46;6.05;;;5.47;;
19802;SDS011;66074;50.764;6.090;2023-04-24T04:49:12;6.43;;;5.72;;
19802;SDS011;66074;50.764;6.090;2023-04-24T04:51:41;6.22;;;5.60;;
19802;SDS011;66074;50.764;6.090;2023-04-24T04:54:07;6.30;;;5.60;;
19802;SDS011;66074;50.764;6.090;2023-04-24T04:56:33;7.78;;;5.65;;
19802;SDS011;66074;50.764;6.090;2023-04-24T04:58:58;5.70;;;5.20;;
19802;SDS011;66074;50.764;6.090;2023-04-24T05:01:24;6.20;;;5.70;;
19802;SDS011;66074;50.764;6.090;2023-04-24T05:03:52;5.53;;;5.03;;
19802;SDS011;66074;50.764;6.090;2023-04-24T05:06:18;5.60;;;5.10;;
19802;SDS011;66074;50.764;6.090;2023-04-24T05:08:44;5.32;;;4.50;;
19802;SDS011;66074;50.764;6.090;2023-04-24T05:11:10;4.20;;;3.83;;
19802;SDS011;66074;50.764;6.090;2023-04-24T05:13:35;4.07;;;3.75;;
19802;SDS011;66074;50.764;6.090;2023-04-24T05:16:01;4.00;;;3.60;;
19802;SDS011;66074;50.764;6.090;2023-04-24T05:18:27;4.13;;;3.47;;
19802;SDS011;66074;50.764;6.090;2023-04-24T05:20:52;3.58;;;3.05;;
19802;SDS011;66074;50.764;6.090;2023-04-24T05:23:18;2.78;;;2.58;;
19802;SDS011;66074;50.764;6.090;2023-04-24T05:25:43;3.83;;;3.40;;
19802;SDS011;66074;50.764;6.090;2023-04-24T05:28:09;4.55;;;3.55;;
19802;SDS011;66074;50.764;6.090;2023-04-24T05:30:35;3.70;;;3.38;;
19802;SDS011;66074;50.764;6.090;2023-04-24T05:33:01;4.40;;;3.55;;
19802;SDS011;66074;50.764;6.090;2023-04-24T05:35:26;4.57;;;4.00;;
19802;SDS011;66074;50.764;6.090;2023-04-24T05:37:52;3.70;;;3.40;;
19802;SDS011;66074;50.764;6.090;2023-04-24T05:40:18;4.20;;;3.90;;
19802;SDS011;66074;50.764;6.090;2023-04-24T05:42:43;3.97;;;3.65;;
19802;SDS011;66074;50.764;6.090;2023-04-24T05:45:09;4.10;;;3.70;;
19802;SDS011;66074;50.764;6.090;2023-04-24T05:47:39;4.53;;;3.15;;
19802;SDS011;66074;50.764;6.090;2023-04-24T05:50:09;3.97;;;3.58;;
19802;SDS011;66074;50.764;6.090;2023-04-24T05:52:35;3.90;;;3.60;;
19802;SDS011;66074;50.764;6.090;2023-04-24T05:55:01;4.85;;;3.50;;
19802;SDS011;66074;50.764;6.090;2023-04-24T05:57:26;3.67;;;3.38;;
19802;SDS011;66074;50.764;6.090;2023-04-24T05:59:52;3.95;;;3.65;;
19802;SDS011;66074;50.764;6.090;2023-04-24T06:02:18;3.70;;;3.25;;
19802;SDS011;66074;50.764;6.090;2023-04-24T06:04:43;5.13;;;4.03;;
19802;SDS011;66074;50.764;6.090;2023-04-24T06:07:10;4.03;;;3.72;;
19802;SDS011;66074;50.764;6.090;2023-04-24T06:09:36;3.53;;;3.22;;
19802;SDS011;66074;50.764;6.090;2023-04-24T06:12:02;3.50;;;3.20;;
19802;SDS011;66074;50.764;6.090;2023-04-24T06:14:28;3.50;;;3.20;;
19802;SDS011;66074;50.764;6.090;2023-04-24T06:16:53;2.80;;;2.22;;
19802;SDS011;66074;50.764;6.090;2023-04-24T06:19:19;2.60;;;2.40;;
19802;SDS011;66074;50.764;6.090;2023-04-24T06:21:44;3.13;;;2.85;;
19802;SDS011;66074;50.764;6.090;2023-04-24T06:24:10;2.40;;;2.20;;
19802;SDS011;66074;50.764;6.090;2023-04-24T06:26:38;3.00;;;2.70;;
19802;SDS011;66074;50.764;6.090;2023-04-24T06:29:04;3.40;;;2.28;;
19802;SDS011;66074;50.764;6.090;2023-04-24T06:31:32;2.15;;;2.00;;
19802;SDS011;66074;50.764;6.090;2023-04-24T06:34:02;2.30;;;2.10;;
19802;SDS011;66074;50.764;6.090;2023-04-24T06:36:28;2.10;;;2.00;;
19802;SDS011;66074;50.764;6.090;2023-04-24T06:38:53;2.20;;;2.00;;
19802;SDS011;66074;50.764;6.090;2023-04-24T06:41:19;2.97;;;2.42;;
19802;SDS011;66074;50.764;6.090;2023-04-24T06:43:45;4.05;;;3.15;;
19802;SDS011;66074;50.764;6.090;2023-04-24T06:46:10;2.00;;;1.80;;
19802;SDS011;66074;50.764;6.090;2023-04-24T06:48:37;1.70;;;1.60;;
19802;SDS011;66074;50.764;6.090;2023-04-24T06:51:02;2.13;;;1.92;;
19802;SDS011;66074;50.764;6.090;2023-04-24T06:53:28;1.70;;;1.60;;
19802;SDS011;66074;50.764;6.090;2023-04-24T06:55:53;1.80;;;1.60;;
19802;SDS011;66074;50.764;6.090;2023-04-24T06:58:19;1.42;;;1.33;;
19802;SDS011;66074;50.764;6.090;2023-04-24T07:00:45;2.38;;;1.67;;
19802;SDS011;66074;50.764;6.090;2023-04-24T07:03:11;1.73;;;1.63;;
19802;SDS011;66074;50.764;6.090;2023-04-24T07:05:36;1.60;;;1.50;;
19802;SDS011;66074;50.764;6.090;2023-04-24T07:08:03;2.00;;;1.90;;
19802;SDS011;66074;50.764;6.090;2023-04-24T07:10:29;1.80;;;1.70;;
19802;SDS011;66074;50.764;6.090;2023-04-24T07:12:55;2.30;;;2.10;;
19802;SDS011;66074;50.764;6.090;2023-04-24T07:15:23;2.20;;;2.00;;
19802;SDS011;66074;50.764;6.090;2023-04-24T07:17:49;2.85;;;1.90;;
19802;SDS011;66074;50.764;6.090;2023-04-24T07:20:15;3.53;;;2.58;;
19802;SDS011;66074;50.764;6.090;2023-04-24T07:22:40;2.60;;;2.35;;
19802;SDS011;66074;50.764;6.090;2023-04-24T07:25:06;2.22;;;2.10;;
19802;SDS011;66074;50.764;6.090;2023-04-24T07:27:32;3.15;;;2.90;;
19802;SDS011;66074;50.764;6.090;2023-04-24T07:29:59;2.55;;;2.35;;
19802;SDS011;66074;50.764;6.090;2023-04-24T07:32:24;2.60;;;2.40;;
19802;SDS011;66074;50.764;6.090;2023-04-24T07:34:50;2.25;;;2.13;;
19802;SDS011;66074;50.764;6.090;2023-04-24T07:37:16;6.38;;;2.53;;
19802;SDS011;66074;50.764;6.090;2023-04-24T07:39:41;2.40;;;2.20;;
19802;SDS011;66074;50.764;6.090;2023-04-24T07:42:07;2.78;;;2.58;;
19802;SDS011;66074;50.764;6.090;2023-04-24T07:44:33;2.70;;;2.50;;
19802;SDS011;66074;50.764;6.090;2023-04-24T07:46:58;2.95;;;2.75;;
19802;SDS011;66074;50.764;6.090;2023-04-24T07:49:24;4.50;;;3.20;;
19802;SDS011;66074;50.764;6.090;2023-04-24T07:51:50;3.60;;;3.30;;
19802;SDS011;66074;50.764;6.090;2023-04-24T07:54:16;4.35;;;3.70;;
19802;SDS011;66074;50.764;6.090;2023-04-24T07:56:43;5.97;;;3.40;;
19802;SDS011;66074;50.764;6.090;2023-04-24T07:59:08;4.55;;;3.65;;
19802;SDS011;66074;50.764;6.090;2023-04-24T08:01:35;4.47;;;4.07;;
19802;SDS011;66074;50.764;6.090;2023-04-24T08:04:01;4.10;;;3.70;;
19802;SDS011;66074;50.764;6.090;2023-04-24T08:06:26;4.85;;;3.85;;
19802;SDS011;66074;50.764;6.090;2023-04-24T08:08:58;5.32;;;3.50;;
19802;SDS011;66074;50.764;6.090;2023-04-24T08:11:25;4.30;;;3.60;;
19802;SDS011;66074;50.764;6.090;2023-04-24T08:13:50;5.10;;;4.60;;
19802;SDS011;66074;50.764;6.090;2023-04-24T08:16:16;4.03;;;3.65;;
19802;SDS011;66074;50.764;6.090;2023-04-24T08:18:42;5.80;;;4.38;;
19802;SDS011;66074;50.764;6.090;2023-04-24T08:21:07;4.20;;;3.80;;
19802;SDS011;66074;50.764;6.090;2023-04-24T08:23:33;3.55;;;3.25;;
19802;SDS011;66074;50.764;6.090;2023-04-24T08:25:59;3.67;;;3.38;;
19802;SDS011;66074;50.764;6.090;2023-04-24T08:28:24;2.95;;;2.72;;
19802;SDS011;66074;50.764;6.090;2023-04-24T08:30:50;3.72;;;3.10;;
19802;SDS011;66074;50.764;6.090;2023-04-24T08:33:19;4.97;;;3.47;;
19802;SDS011;66074;50.764;6.090;2023-04-24T08:35:46;4.93;;;3.25;;
19802;SDS011;66074;50.764;6.090;2023-04-24T08:38:12;3.55;;;2.60;;
19802;SDS011;66074;50.764;6.090;2023-04-24T08:40:37;3.65;;;2.72;;
19802;SDS011;66074;50.764;6.090;2023-04-24T08:43:04;10.73;;;3.70;;
19802;SDS011;66074;50.764;6.090;2023-04-24T08:45:30;4.32;;;3.00;;
19802;SDS011;66074;50.764;6.090;2023-04-24T08:47:57;3.55;;;3.05;;
19802;SDS011;66074;50.764;6.090;2023-04-24T08:50:23;3.75;;;3.00;;
19802;SDS011;66074;50.764;6.090;2023-04-24T08:52:50;3.85;;;3.55;;
19802;SDS011;66074;50.764;6.090;2023-04-24T08:55:18;5.32;;;4.15;;
19802;SDS011;66074;50.764;6.090;2023-04-24T08:57:45;5.43;;;4.60;;
19802;SDS011;66074;50.764;6.090;2023-04-24T09:00:14;5.50;;;5.00;;
19802;SDS011;66074;50.764;6.090;2023-04-24T09:02:43;8.27;;;5.72;;
19802;SDS011;66074;50.764;6.090;2023-04-24T09:05:12;5.63;;;5.13;;
19802;SDS011;66074;50.764;6.090;2023-04-24T09:07:38;5.78;;;4.97;;
19802;SDS011;66074;50.764;6.090;2023-04-24T09:10:06;5.55;;;5.03;;
19802;SDS011;66074;50.764;6.090;2023-04-24T09:12:34;7.32;;;5.18;;
19802;SDS011;66074;50.764;6.090;2023-04-24T09:15:00;6.35;;;5.75;;
19802;SDS011;66074;50.764;6.090;2023-04-24T09:17:28;6.00;;;5.18;;
19802;SDS011;66074;50.764;6.090;2023-04-24T09:19:55;6.20;;;5.60;;
19802;SDS011;66074;50.764;6.090;2023-04-24T09:22:20;7.32;;;5.25;;
19802;SDS011;66074;50.764;6.090;2023-04-24T09:24:46;6.32;;;5.22;;
19802;SDS011;66074;50.764;6.090;2023-04-24T09:27:13;9.32;;;5.55;;
19802;SDS011;66074;50.764;6.090;2023-04-24T09:29:53;7.20;;;5.47;;
19802;SDS011;66074;50.764;6.090;2023-04-24T09:32:20;8.50;;;5.10;;
19802;SDS011;66074;50.764;6.090;2023-04-24T09:34:47;6.20;;;5.50;;
19802;SDS011;66074;50.764;6.090;2023-04-24T09:37:29;6.35;;;5.30;;
19802;SDS011;66074;50.764;6.090;2023-04-24T09:40:08;7.22;;;5.07;;
19802;SDS011;66074;50.764;6.090;2023-04-24T09:42:33;7.35;;;5.40;;
19802;SDS011;66074;50.764;6.090;2023-04-24T09:44:59;6.28;;;5.20;;
19802;SDS011;66074;50.764;6.090;2023-04-24T09:47:25;6.47;;;4.63;;
19802;SDS011;66074;50.764;6.090;2023-04-24T09:49:50;6.53;;;4.25;;
19802;SDS011;66074;50.764;6.090;2023-04-24T09:52:22;7.13;;;6.10;;
19802;SDS011;66074;50.764;6.090;2023-04-24T09:54:53;4.65;;;4.00;;
19802;SDS011;66074;50.764;6.090;2023-04-24T09:57:19;7.10;;;4.28;;
19802;SDS011;66074;50.764;6.090;2023-04-24T09:59:45;6.95;;;4.28;;
19802;SDS011;66074;50.764;6.090;2023-04-24T10:02:18;7.63;;;3.70;;
19802;SDS011;66074;50.764;6.090;2023-04-24T10:04:53;7.47;;;3.63;;
19802;SDS011;66074;50.764;6.090;2023-04-24T10:07:27;5.28;;;3.25;;
19802;SDS011;66074;50.764;6.090;2023-04-24T10:09:53;5.05;;;3.20;;
19802;SDS011;66074;50.764;6.090;2023-04-24T10:12:19;6.03;;;2.85;;
19802;SDS011;66074;50.764;6.090;2023-04-24T10:14:46;4.18;;;3.05;;
19802;SDS011;66074;50.764;6.090;2023-04-24T10:17:11;4.95;;;3.15;;
19802;SDS011;66074;50.764;6.090;2023-04-24T10:19:39;7.10;;;4.20;;
19802;SDS011;66074;50.764;6.090;2023-04-24T10:22:06;6.57;;;3.45;;
19802;SDS011;66074;50.764;6.090;2023-04-24T10:24:33;6.38;;;3.45;;
19802;SDS011;66074;50.764;6.090;2023-04-24T10:27:01;6.95;;;3.58;;
19802;SDS011;66074;50.764;6.090;2023-04-24T10:29:28;5.57;;;3.65;;
19802;SDS011;66074;50.764;6.090;2023-04-24T10:31:56;4.68;;;3.08;;
19802;SDS011;66074;50.764;6.090;2023-04-24T10:34:22;4.75;;;3.38;;
19802;SDS011;66074;50.764;6.090;2023-04-24T10:36:50;4.25;;;3.50;;
19802;SDS011;66074;50.764;6.090;2023-04-24T10:39:17;5.47;;;3.72;;
19802;SDS011;66074;50.764;6.090;2023-04-24T10:41:45;4.88;;;3.53;;
19802;SDS011;66074;50.764;6.090;2023-04-24T10:44:15;6.13;;;4.38;;
19802;SDS011;66074;50.764;6.090;2023-04-24T10:46:45;4.28;;;3.78;;
19802;SDS011;66074;50.764;6.090;2023-04-24T10:49:13;5.47;;;3.60;;
19802;SDS011;66074;50.764;6.090;2023-04-24T10:51:49;7.50;;;5.45;;
19802;SDS011;66074;50.764;6.090;2023-04-24T10:54:23;5.38;;;4.15;;
19802;SDS011;66074;50.764;6.090;2023-04-24T10:56:52;5.15;;;4.57;;
19802;SDS011;66074;50.764;6.090;2023-04-24T10:59:25;6.82;;;4.20;;
19802;SDS011;66074;50.764;6.090;2023-04-24T11:01:53;6.40;;;4.53;;
19802;SDS011;66074;50.764;6.090;2023-04-24T11:04:29;6.45;;;4.32;;
19802;SDS011;66074;50.764;6.090;2023-04-24T11:07:00;6.97;;;5.25;;
19802;SDS011;66074;50.764;6.090;2023-04-24T11:09:27;7.00;;;4.95;;
19802;SDS011;66074;50.764;6.090;2023-04-24T11:12:05;6.57;;;4.40;;
19802;SDS011;66074;50.764;6.090;2023-04-24T11:17:37;6.15;;;4.45;;
19802;SDS011;66074;50.764;6.090;2023-04-24T11:20:05;7.20;;;4.85;;
19802;SDS011;66074;50.764;6.090;2023-04-24T11:22:41;6.43;;;4.78;;
19802;SDS011;66074;50.764;6.090;2023-04-24T11:25:08;6.95;;;4.30;;
19802;SDS011;66074;50.764;6.090;2023-04-24T11:27:40;7.80;;;4.00;;
19802;SDS011;66074;50.764;6.090;2023-04-24T11:30:07;8.38;;;4.22;;
19802;SDS011;66074;50.764;6.090;2023-04-24T11:35:02;6.22;;;3.97;;
19802;SDS011;66074;50.764;6.090;2023-04-24T11:37:35;5.68;;;3.60;;
19802;SDS011;66074;50.764;6.090;2023-04-24T11:40:03;5.05;;;3.45;;
19802;SDS011;66074;50.764;6.090;2023-04-24T11:42:40;6.95;;;3.72;;
19802;SDS011;66074;50.764;6.090;2023-04-24T11:45:07;7.38;;;3.40;;
19802;SDS011;66074;50.764;6.090;2023-04-24T11:47:34;7.30;;;3.78;;
19802;SDS011;66074;50.764;6.090;2023-04-24T11:50:00;7.18;;;3.00;;
19802;SDS011;66074;50.764;6.090;2023-04-24T11:52:27;5.65;;;3.65;;
19802;SDS011;66074;50.764;6.090;2023-04-24T11:54:54;5.95;;;3.88;;
19802;SDS011;66074;50.764;6.090;2023-04-24T11:57:21;4.40;;;3.05;;
19802;SDS011;66074;50.764;6.090;2023-04-24T11:59:48;5.75;;;3.40;;
19802;SDS011;66074;50.764;6.090;2023-04-24T12:02:24;5.50;;;3.25;;
19802;SDS011;66074;50.764;6.090;2023-04-24T12:04:51;6.30;;;3.05;;
19802;SDS011;66074;50.764;6.090;2023-04-24T12:07:17;4.65;;;3.22;;
19802;SDS011;66074;50.764;6.090;2023-04-24T12:09:44;6.15;;;4.05;;
19802;SDS011;66074;50.764;6.090;2023-04-24T12:12:12;5.55;;;3.60;;
19802;SDS011;66074;50.764;6.090;2023-04-24T12:14:42;5.85;;;3.60;;
19802;SDS011;66074;50.764;6.090;2023-04-24T12:17:08;6.20;;;3.42;;
19802;SDS011;66074;50.764;6.090;2023-04-24T12:19:34;7.20;;;3.53;;
19802;SDS011;66074;50.764;6.090;2023-04-24T12:22:01;6.38;;;3.20;;
19802;SDS011;66074;50.764;6.090;2023-04-24T12:24:28;6.07;;;3.53;;
19802;SDS011;66074;50.764;6.090;2023-04-24T12:26:55;5.28;;;3.03;;
19802;SDS011;66074;50.764;6.090;2023-04-24T12:29:21;12.13;;;3.88;;
19802;SDS011;66074;50.764;6.090;2023-04-24T12:31:47;4.55;;;3.30;;
19802;SDS011;66074;50.764;6.090;2023-04-24T12:34:23;5.35;;;3.55;;
19802;SDS011;66074;50.764;6.090;2023-04-24T12:36:50;5.25;;;3.25;;
19802;SDS011;66074;50.764;6.090;2023-04-24T12:39:17;6.55;;;3.15;;
19802;SDS011;66074;50.764;6.090;2023-04-24T12:41:50;6.20;;;3.42;;
19802;SDS011;66074;50.764;6.090;2023-04-24T12:44:35;4.50;;;3.05;;
19802;SDS011;66074;50.764;6.090;2023-04-24T12:47:02;4.97;;;2.80;;
19802;SDS011;66074;50.764;6.090;2023-04-24T12:49:29;5.00;;;3.10;;
19802;SDS011;66074;50.764;6.090;2023-04-24T12:51:55;4.80;;;3.03;;
19802;SDS011;66074;50.764;6.090;2023-04-24T12:54:21;5.93;;;3.53;;
19802;SDS011;66074;50.764;6.090;2023-04-24T12:56:47;5.40;;;3.05;;
19802;SDS011;66074;50.764;6.090;2023-04-24T12:59:13;6.40;;;3.92;;
19802;SDS011;66074;50.764;6.090;2023-04-24T13:01:38;5.05;;;3.15;;
19802;SDS011;66074;50.764;6.090;2023-04-24T13:04:05;6.47;;;3.42;;
19802;SDS011;66074;50.764;6.090;2023-04-24T13:06:31;7.90;;;3.03;;
19802;SDS011;66074;50.764;6.090;2023-04-24T13:08:57;4.82;;;2.53;;
19802;SDS011;66074;50.764;6.090;2023-04-24T13:11:23;2.85;;;2.33;;
19802;SDS011;66074;50.764;6.090;2023-04-24T13:13:49;4.03;;;2.67;;
19802;SDS011;66074;50.764;6.090;2023-04-24T13:16:15;6.28;;;3.92;;
19802;SDS011;66074;50.764;6.090;2023-04-24T13:18:40;4.00;;;2.72;;
19802;SDS011;66074;50.764;6.090;2023-04-24T13:21:06;3.60;;;2.60;;
19802;SDS011;66074;50.764;6.090;2023-04-24T13:23:32;5.00;;;3.03;;
19802;SDS011;66074;50.764;6.090;2023-04-24T13:25:57;5.60;;;2.90;;
19802;SDS011;66074;50.764;6.090;2023-04-24T13:28:26;5.45;;;3.10;;
19802;SDS011;66074;50.764;6.090;2023-04-24T13:30:52;5.13;;;3.10;;
19802;SDS011;66074;50.764;6.090;2023-04-24T13:33:18;6.65;;;2.70;;
19802;SDS011;66074;50.764;6.090;2023-04-24T13:35:44;6.85;;;3.08;;
19802;SDS011;66074;50.764;6.090;2023-04-24T13:38:09;3.78;;;2.78;;
19802;SDS011;66074;50.764;6.090;2023-04-24T13:40:35;7.07;;;3.05;;
19802;SDS011;66074;50.764;6.090;2023-04-24T13:43:01;3.28;;;2.88;;
19802;SDS011;66074;50.764;6.090;2023-04-24T13:45:27;5.18;;;2.70;;
19802;SDS011;66074;50.764;6.090;2023-04-24T13:47:53;4.00;;;2.92;;
19802;SDS011;66074;50.764;6.090;2023-04-24T13:50:19;3.33;;;2.60;;
19802;SDS011;66074;50.764;6.090;2023-04-24T13:52:45;4.10;;;2.72;;
19802;SDS011;66074;50.764;6.090;2023-04-24T13:55:11;6.68;;;3.03;;
19802;SDS011;66074;50.764;6.090;2023-04-24T13:57:37;3.10;;;2.67;;
19802;SDS011;66074;50.764;6.090;2023-04-24T14:00:02;5.63;;;2.88;;
19802;SDS011;66074;50.764;6.090;2023-04-24T14:02:29;4.25;;;3.03;;
19802;SDS011;66074;50.764;6.090;2023-04-24T14:04:55;6.00;;;2.25;;
19802;SDS011;66074;50.764;6.090;2023-04-24T14:07:20;5.70;;;2.83;;
19802;SDS011;66074;50.764;6.090;2023-04-24T14:09:46;5.05;;;3.13;;
19802;SDS011;66074;50.764;6.090;2023-04-24T14:12:12;2.92;;;2.63;;
19802;SDS011;66074;50.764;6.090;2023-04-24T14:14:39;4.60;;;2.83;;
19802;SDS011;66074;50.764;6.090;2023-04-24T14:17:04;6.20;;;2.60;;
19802;SDS011;66074;50.764;6.090;2023-04-24T14:19:30;4.40;;;2.50;;
19802;SDS011;66074;50.764;6.090;2023-04-24T14:21:56;9.02;;;4.38;;
19802;SDS011;66074;50.764;6.090;2023-04-24T14:24:23;4.18;;;3.17;;
19802;SDS011;66074;50.764;6.090;2023-04-24T14:26:48;3.78;;;2.50;;
19802;SDS011;66074;50.764;6.090;2023-04-24T14:29:14;5.25;;;2.88;;
19802;SDS011;66074;50.764;6.090;2023-04-24T14:31:41;6.63;;;3.10;;
19802;SDS011;66074;50.764;6.090;2023-04-24T14:34:08;4.40;;;3.15;;
19802;SDS011;66074;50.764;6.090;2023-04-24T14:36:34;3.65;;;2.50;;
19802;SDS011;66074;50.764;6.090;2023-04-24T14:39:00;5.82;;;2.10;;
19802;SDS011;66074;50.764;6.090;2023-04-24T14:41:28;3.60;;;2.75;;
19802;SDS011;66074;50.764;6.090;2023-04-24T14:43:54;5.18;;;2.58;;
19802;SDS011;66074;50.764;6.090;2023-04-24T14:46:19;3.03;;;1.90;;
19802;SDS011;66074;50.764;6.090;2023-04-24T14:48:45;5.32;;;1.88;;
19802;SDS011;66074;50.764;6.090;2023-04-24T14:51:10;3.10;;;2.45;;